Terminal Aerodrome Forecast
Issued by NWS Wilmington, OH

Current Version | Previous Version | Graphics & Text | Print | Product List | Glossary On
Versions: 1 2 3 4 5 6 7 8 9 10 11 12 13 14 15 16 17 18 19 20 21 22 23 24 25 26
051
FTUS41 KILN 152113 AAA
TAFCVG
TAF AMD
KCVG 152113Z 1521/1624 29004KT P6SM SCT040
     FM160100 VRB03KT P6SM FEW150
     FM161000 00000KT 5SM BR SCT150
     FM161300 00000KT P6SM SCT050 SCT200
     FM161800 20006KT P6SM BKN040=

USA.gov is the U.S. government's official web portal to all federal, state and local government web resources and services.